sensor_id;sensor_type;location;lat;lon;timestamp;P1;durP1;ratioP1;P2;durP2;ratioP2
63653;SDS011;49809;47.418;19.080;2023-04-25T00:09:36;1.35;;;0.90;;
63653;SDS011;49809;47.418;19.080;2023-04-25T00:14:06;0.95;;;0.75;;
63653;SDS011;49809;47.418;19.080;2023-04-25T00:18:11;2.33;;;1.00;;
63653;SDS011;49809;47.418;19.080;2023-04-25T00:21:49;0.77;;;0.70;;
63653;SDS011;49809;47.418;19.080;2023-04-25T00:37:35;0.90;;;0.70;;
63653;SDS011;49809;47.418;19.080;2023-04-25T00:41:10;0.95;;;0.77;;
63653;SDS011;49809;47.418;19.080;2023-04-25T00:57:04;3.25;;;0.98;;
63653;SDS011;49809;47.418;19.080;2023-04-25T01:00:56;1.73;;;1.00;;
63653;SDS011;49809;47.418;19.080;2023-04-25T01:04:52;1.20;;;1.05;;
63653;SDS011;49809;47.418;19.080;2023-04-25T01:07:57;3.47;;;1.15;;
63653;SDS011;49809;47.418;19.080;2023-04-25T01:15:53;3.30;;;1.23;;
63653;SDS011;49809;47.418;19.080;2023-04-25T01:19:34;0.90;;;0.85;;
63653;SDS011;49809;47.418;19.080;2023-04-25T01:31:05;1.62;;;1.10;;
63653;SDS011;49809;47.418;19.080;2023-04-25T01:38:46;1.37;;;1.10;;
63653;SDS011;49809;47.418;19.080;2023-04-25T01:42:20;0.95;;;0.90;;
63653;SDS011;49809;47.418;19.080;2023-04-25T01:46:14;1.40;;;1.08;;
63653;SDS011;49809;47.418;19.080;2023-04-25T01:54:11;1.25;;;1.00;;
63653;SDS011;49809;47.418;19.080;2023-04-25T01:58:00;1.60;;;1.00;;
63653;SDS011;49809;47.418;19.080;2023-04-25T02:01:55;1.87;;;1.12;;
63653;SDS011;49809;47.418;19.080;2023-04-25T02:05:48;1.50;;;1.25;;
63653;SDS011;49809;47.418;19.080;2023-04-25T02:09:50;1.40;;;1.23;;
63653;SDS011;49809;47.418;19.080;2023-04-25T02:13:21;1.30;;;1.20;;
63653;SDS011;49809;47.418;19.080;2023-04-25T02:17:29;1.83;;;1.12;;
63653;SDS011;49809;47.418;19.080;2023-04-25T02:25:10;2.58;;;1.35;;
63653;SDS011;49809;47.418;19.080;2023-04-25T02:29:06;3.08;;;1.10;;
63653;SDS011;49809;47.418;19.080;2023-04-25T02:33:05;1.90;;;1.43;;
63653;SDS011;49809;47.418;19.080;2023-04-25T02:37:08;1.25;;;1.15;;
63653;SDS011;49809;47.418;19.080;2023-04-25T02:41:08;2.20;;;1.12;;
63653;SDS011;49809;47.418;19.080;2023-04-25T02:45:05;2.95;;;1.40;;
63653;SDS011;49809;47.418;19.080;2023-04-25T02:52:34;1.77;;;1.42;;
63653;SDS011;49809;47.418;19.080;2023-04-25T02:56:34;1.23;;;1.00;;
63653;SDS011;49809;47.418;19.080;2023-04-25T03:00:18;2.12;;;1.27;;
63653;SDS011;49809;47.418;19.080;2023-04-25T03:04:40;1.60;;;1.30;;
63653;SDS011;49809;47.418;19.080;2023-04-25T03:08:12;1.87;;;1.30;;
63653;SDS011;49809;47.418;19.080;2023-04-25T03:12:13;1.80;;;1.40;;
63653;SDS011;49809;47.418;19.080;2023-04-25T03:16:05;3.85;;;1.48;;
63653;SDS011;49809;47.418;19.080;2023-04-25T03:19:57;1.12;;;1.00;;
63653;SDS011;49809;47.418;19.080;2023-04-25T03:23:42;2.05;;;1.30;;
63653;SDS011;49809;47.418;19.080;2023-04-25T03:27:37;2.97;;;1.50;;
63653;SDS011;49809;47.418;19.080;2023-04-25T03:31:26;2.50;;;1.40;;
63653;SDS011;49809;47.418;19.080;2023-04-25T03:39:55;2.78;;;1.30;;
63653;SDS011;49809;47.418;19.080;2023-04-25T03:48:00;1.65;;;1.10;;
63653;SDS011;49809;47.418;19.080;2023-04-25T03:55:21;1.70;;;1.27;;
63653;SDS011;49809;47.418;19.080;2023-04-25T04:10:38;2.05;;;1.23;;
63653;SDS011;49809;47.418;19.080;2023-04-25T04:14:14;1.52;;;1.20;;
63653;SDS011;49809;47.418;19.080;2023-04-25T04:21:58;1.15;;;0.98;;
63653;SDS011;49809;47.418;19.080;2023-04-25T04:25:58;1.00;;;0.90;;
63653;SDS011;49809;47.418;19.080;2023-04-25T04:29:57;2.80;;;1.10;;
63653;SDS011;49809;47.418;19.080;2023-04-25T04:33:50;1.37;;;1.02;;
63653;SDS011;49809;47.418;19.080;2023-04-25T04:37:57;1.33;;;0.93;;
63653;SDS011;49809;47.418;19.080;2023-04-25T04:41:37;3.50;;;1.75;;
63653;SDS011;49809;47.418;19.080;2023-04-25T04:45:08;1.55;;;1.35;;
63653;SDS011;49809;47.418;19.080;2023-04-25T04:49:04;3.30;;;1.50;;
63653;SDS011;49809;47.418;19.080;2023-04-25T04:52:57;1.70;;;1.35;;
63653;SDS011;49809;47.418;19.080;2023-04-25T04:56:35;4.12;;;1.83;;
63653;SDS011;49809;47.418;19.080;2023-04-25T06:10:52;1.90;;;1.50;;
63653;SDS011;49809;47.418;19.080;2023-04-25T06:48:17;3.20;;;2.00;;
63653;SDS011;49809;47.418;19.080;2023-04-25T06:51:42;2.25;;;1.80;;
63653;SDS011;49809;47.418;19.080;2023-04-25T06:55:46;5.22;;;2.35;;
63653;SDS011;49809;47.418;19.080;2023-04-25T06:59:53;2.95;;;1.83;;
63653;SDS011;49809;47.418;19.080;2023-04-25T07:03:32;4.60;;;2.40;;
63653;SDS011;49809;47.418;19.080;2023-04-25T07:07:20;7.53;;;2.30;;
63653;SDS011;49809;47.418;19.080;2023-04-25T07:11:36;3.20;;;2.30;;
63653;SDS011;49809;47.418;19.080;2023-04-25T07:15:06;2.95;;;2.05;;
63653;SDS011;49809;47.418;19.080;2023-04-25T07:23:10;2.78;;;2.12;;
63653;SDS011;49809;47.418;19.080;2023-04-25T07:30:42;5.87;;;2.30;;
63653;SDS011;49809;47.418;19.080;2023-04-25T07:46:08;3.80;;;1.92;;
63653;SDS011;49809;47.418;19.080;2023-04-25T07:49:54;3.20;;;1.95;;
63653;SDS011;49809;47.418;19.080;2023-04-25T07:53:09;3.40;;;1.85;;
63653;SDS011;49809;47.418;19.080;2023-04-25T07:56:34;2.20;;;1.92;;
63653;SDS011;49809;47.418;19.080;2023-04-25T08:00:28;1.67;;;1.48;;
63653;SDS011;49809;47.418;19.080;2023-04-25T08:03:39;3.62;;;1.92;;
63653;SDS011;49809;47.418;19.080;2023-04-25T08:06:48;4.25;;;2.90;;
63653;SDS011;49809;47.418;19.080;2023-04-25T08:13:53;2.00;;;1.70;;
63653;SDS011;49809;47.418;19.080;2023-04-25T08:16:58;2.55;;;1.62;;
63653;SDS011;49809;47.418;19.080;2023-04-25T08:20:35;2.25;;;1.60;;
63653;SDS011;49809;47.418;19.080;2023-04-25T08:24:41;1.70;;;1.42;;
63653;SDS011;49809;47.418;19.080;2023-04-25T08:31:18;1.65;;;1.35;;
63653;SDS011;49809;47.418;19.080;2023-04-25T08:34:50;1.55;;;1.40;;
63653;SDS011;49809;47.418;19.080;2023-04-25T08:42:27;2.17;;;1.60;;
63653;SDS011;49809;47.418;19.080;2023-04-25T08:45:36;1.60;;;1.30;;
63653;SDS011;49809;47.418;19.080;2023-04-25T08:49:04;2.10;;;1.48;;
63653;SDS011;49809;47.418;19.080;2023-04-25T08:52:11;2.72;;;1.50;;
63653;SDS011;49809;47.418;19.080;2023-04-25T08:55:37;2.42;;;1.40;;
63653;SDS011;49809;47.418;19.080;2023-04-25T08:59:30;1.70;;;1.42;;
63653;SDS011;49809;47.418;19.080;2023-04-25T09:02:36;2.03;;;1.70;;
63653;SDS011;49809;47.418;19.080;2023-04-25T09:05:44;1.90;;;1.52;;
63653;SDS011;49809;47.418;19.080;2023-04-25T09:09:31;2.25;;;1.45;;
63653;SDS011;49809;47.418;19.080;2023-04-25T09:12:35;1.90;;;1.60;;
63653;SDS011;49809;47.418;19.080;2023-04-25T09:15:49;2.12;;;1.60;;
63653;SDS011;49809;47.418;19.080;2023-04-25T09:18:58;1.50;;;1.40;;
63653;SDS011;49809;47.418;19.080;2023-04-25T09:22:44;2.65;;;1.60;;
63653;SDS011;49809;47.418;19.080;2023-04-25T09:25:53;1.87;;;1.50;;
63653;SDS011;49809;47.418;19.080;2023-04-25T09:29:04;1.93;;;1.40;;
63653;SDS011;49809;47.418;19.080;2023-04-25T09:32:30;1.77;;;1.30;;
63653;SDS011;49809;47.418;19.080;2023-04-25T09:35:39;2.05;;;1.50;;
63653;SDS011;49809;47.418;19.080;2023-04-25T09:38:46;2.80;;;1.73;;
63653;SDS011;49809;47.418;19.080;2023-04-25T09:41:55;1.83;;;1.50;;
63653;SDS011;49809;47.418;19.080;2023-04-25T09:45:12;1.75;;;1.45;;
63653;SDS011;49809;47.418;19.080;2023-04-25T09:48:24;1.67;;;1.37;;
63653;SDS011;49809;47.418;19.080;2023-04-25T09:51:29;1.95;;;1.42;;
63653;SDS011;49809;47.418;19.080;2023-04-25T09:54:57;2.47;;;1.55;;
63653;SDS011;49809;47.418;19.080;2023-04-25T09:58:28;1.85;;;1.58;;
63653;SDS011;49809;47.418;19.080;2023-04-25T10:01:36;1.67;;;1.27;;
63653;SDS011;49809;47.418;19.080;2023-04-25T10:04:59;1.58;;;1.33;;
63653;SDS011;49809;47.418;19.080;2023-04-25T10:08:08;2.42;;;1.30;;
63653;SDS011;49809;47.418;19.080;2023-04-25T10:11:32;1.67;;;1.10;;
63653;SDS011;49809;47.418;19.080;2023-04-25T10:15:06;1.95;;;1.20;;
63653;SDS011;49809;47.418;19.080;2023-04-25T10:18:33;1.25;;;1.15;;
63653;SDS011;49809;47.418;19.080;2023-04-25T10:22:18;2.70;;;1.50;;
63653;SDS011;49809;47.418;19.080;2023-04-25T10:25:54;1.15;;;1.02;;
63653;SDS011;49809;47.418;19.080;2023-04-25T10:29:02;1.20;;;1.10;;
63653;SDS011;49809;47.418;19.080;2023-04-25T10:32:08;1.02;;;0.80;;
63653;SDS011;49809;47.418;19.080;2023-04-25T10:35:32;0.93;;;0.80;;
63653;SDS011;49809;47.418;19.080;2023-04-25T10:38:39;1.27;;;0.98;;
63653;SDS011;49809;47.418;19.080;2023-04-25T10:42:04;1.20;;;1.00;;
63653;SDS011;49809;47.418;19.080;2023-04-25T10:45:50;1.00;;;0.90;;
63653;SDS011;49809;47.418;19.080;2023-04-25T10:52:38;0.73;;;0.73;;
63653;SDS011;49809;47.418;19.080;2023-04-25T10:56:18;0.73;;;0.73;;
63653;SDS011;49809;47.418;19.080;2023-04-25T11:00:14;0.98;;;0.80;;
63653;SDS011;49809;47.418;19.080;2023-04-25T11:03:21;0.95;;;0.85;;
63653;SDS011;49809;47.418;19.080;2023-04-25T11:07:32;0.60;;;0.60;;
63653;SDS011;49809;47.418;19.080;2023-04-25T11:10:14;2.30;;;0.65;;
63653;SDS011;49809;47.418;19.080;2023-04-25T11:13:20;0.60;;;0.55;;
63653;SDS011;49809;47.418;19.080;2023-04-25T11:16:24;0.93;;;0.70;;
63653;SDS011;49809;47.418;19.080;2023-04-25T11:20:01;0.52;;;0.52;;
63653;SDS011;49809;47.418;19.080;2023-04-25T11:23:09;0.82;;;0.60;;
63653;SDS011;49809;47.418;19.080;2023-04-25T11:26:59;0.45;;;0.40;;
63653;SDS011;49809;47.418;19.080;2023-04-25T11:30:39;0.80;;;0.77;;
63653;SDS011;49809;47.418;19.080;2023-04-25T11:34:03;0.80;;;0.77;;
63653;SDS011;49809;47.418;19.080;2023-04-25T11:37:06;0.50;;;0.43;;
63653;SDS011;49809;47.418;19.080;2023-04-25T11:40:10;0.65;;;0.40;;
63653;SDS011;49809;47.418;19.080;2023-04-25T11:43:16;0.55;;;0.50;;
63653;SDS011;49809;47.418;19.080;2023-04-25T11:46:23;0.85;;;0.43;;
63653;SDS011;49809;47.418;19.080;2023-04-25T11:49:48;0.70;;;0.50;;
63653;SDS011;49809;47.418;19.080;2023-04-25T11:52:56;1.50;;;0.45;;
63653;SDS011;49809;47.418;19.080;2023-04-25T11:56:00;2.72;;;0.50;;
63653;SDS011;49809;47.418;19.080;2023-04-25T11:59:05;0.60;;;0.50;;
63653;SDS011;49809;47.418;19.080;2023-04-25T12:02:25;0.70;;;0.50;;
63653;SDS011;49809;47.418;19.080;2023-04-25T12:05:30;0.57;;;0.45;;
63653;SDS011;49809;47.418;19.080;2023-04-25T12:08:58;1.52;;;0.32;;
63653;SDS011;49809;47.418;19.080;2023-04-25T12:12:04;1.30;;;0.50;;
63653;SDS011;49809;47.418;19.080;2023-04-25T12:15:41;1.10;;;0.60;;
63653;SDS011;49809;47.418;19.080;2023-04-25T12:19:06;0.73;;;0.60;;
63653;SDS011;49809;47.418;19.080;2023-04-25T12:22:29;0.80;;;0.60;;
63653;SDS011;49809;47.418;19.080;2023-04-25T12:26:14;0.65;;;0.50;;
63653;SDS011;49809;47.418;19.080;2023-04-25T12:29:22;0.40;;;0.40;;
63653;SDS011;49809;47.418;19.080;2023-04-25T12:32:31;0.50;;;0.50;;
63653;SDS011;49809;47.418;19.080;2023-04-25T12:35:35;0.62;;;0.52;;
63653;SDS011;49809;47.418;19.080;2023-04-25T12:39:22;0.62;;;0.60;;
63653;SDS011;49809;47.418;19.080;2023-04-25T12:42:48;0.93;;;0.60;;
63653;SDS011;49809;47.418;19.080;2023-04-25T12:45:54;0.73;;;0.57;;
63653;SDS011;49809;47.418;19.080;2023-04-25T12:49:19;0.82;;;0.55;;
63653;SDS011;49809;47.418;19.080;2023-04-25T12:56:55;1.27;;;0.70;;
63653;SDS011;49809;47.418;19.080;2023-04-25T13:00:01;0.60;;;0.50;;
63653;SDS011;49809;47.418;19.080;2023-04-25T13:03:38;2.80;;;0.70;;
63653;SDS011;49809;47.418;19.080;2023-04-25T13:07:43;0.88;;;0.68;;
63653;SDS011;49809;47.418;19.080;2023-04-25T13:11:05;0.82;;;0.50;;
63653;SDS011;49809;47.418;19.080;2023-04-25T13:14:23;0.60;;;0.60;;
63653;SDS011;49809;47.418;19.080;2023-04-25T13:17:45;0.82;;;0.70;;
63653;SDS011;49809;47.418;19.080;2023-04-25T13:20:49;1.02;;;0.82;;
63653;SDS011;49809;47.418;19.080;2023-04-25T13:24:13;1.85;;;0.98;;
63653;SDS011;49809;47.418;19.080;2023-04-25T13:27:17;0.88;;;0.80;;
63653;SDS011;49809;47.418;19.080;2023-04-25T13:30:41;1.00;;;0.85;;
63653;SDS011;49809;47.418;19.080;2023-04-25T13:33:45;0.70;;;0.70;;
63653;SDS011;49809;47.418;19.080;2023-04-25T13:36:49;1.50;;;0.90;;
63653;SDS011;49809;47.418;19.080;2023-04-25T13:40:26;2.37;;;0.80;;
63653;SDS011;49809;47.418;19.080;2023-04-25T13:43:32;2.87;;;0.77;;
63653;SDS011;49809;47.418;19.080;2023-04-25T13:46:37;1.00;;;0.70;;
63653;SDS011;49809;47.418;19.080;2023-04-25T13:49:57;1.48;;;1.10;;
63653;SDS011;49809;47.418;19.080;2023-04-25T13:53:04;0.95;;;0.88;;
63653;SDS011;49809;47.418;19.080;2023-04-25T13:56:12;5.10;;;0.90;;
63653;SDS011;49809;47.418;19.080;2023-04-25T13:59:47;2.30;;;1.52;;
63653;SDS011;49809;47.418;19.080;2023-04-25T14:02:54;1.50;;;0.80;;
63653;SDS011;49809;47.418;19.080;2023-04-25T14:05:59;3.20;;;0.95;;
63653;SDS011;49809;47.418;19.080;2023-04-25T14:09:25;0.77;;;0.70;;
63653;SDS011;49809;47.418;19.080;2023-04-25T14:12:51;0.70;;;0.70;;
63653;SDS011;49809;47.418;19.080;2023-04-25T14:15:55;4.93;;;1.42;;
63653;SDS011;49809;47.418;19.080;2023-04-25T14:19:21;1.73;;;1.10;;
63653;SDS011;49809;47.418;19.080;2023-04-25T14:22:48;1.10;;;1.00;;
63653;SDS011;49809;47.418;19.080;2023-04-25T14:25:52;0.80;;;0.75;;
63653;SDS011;49809;47.418;19.080;2023-04-25T14:29:15;0.80;;;0.70;;
63653;SDS011;49809;47.418;19.080;2023-04-25T14:32:42;2.53;;;1.00;;
63653;SDS011;49809;47.418;19.080;2023-04-25T14:35:48;0.80;;;0.80;;
63653;SDS011;49809;47.418;19.080;2023-04-25T14:39:12;1.05;;;0.80;;
63653;SDS011;49809;47.418;19.080;2023-04-25T14:42:23;1.95;;;1.02;;
63653;SDS011;49809;47.418;19.080;2023-04-25T14:45:33;1.15;;;0.90;;
63653;SDS011;49809;47.418;19.080;2023-04-25T14:48:58;2.15;;;0.80;;
63653;SDS011;49809;47.418;19.080;2023-04-25T14:52:25;0.82;;;0.80;;
63653;SDS011;49809;47.418;19.080;2023-04-25T14:55:49;1.17;;;0.80;;
63653;SDS011;49809;47.418;19.080;2023-04-25T14:59:12;2.28;;;1.00;;
63653;SDS011;49809;47.418;19.080;2023-04-25T15:02:49;1.93;;;1.00;;
63653;SDS011;49809;47.418;19.080;2023-04-25T15:06:13;1.70;;;0.82;;
63653;SDS011;49809;47.418;19.080;2023-04-25T15:09:48;1.30;;;0.90;;
63653;SDS011;49809;47.418;19.080;2023-04-25T15:13:11;1.17;;;0.70;;
63653;SDS011;49809;47.418;19.080;2023-04-25T15:16:37;0.95;;;0.88;;
63653;SDS011;49809;47.418;19.080;2023-04-25T15:20:12;0.98;;;0.77;;
63653;SDS011;49809;47.418;19.080;2023-04-25T15:23:37;1.50;;;0.70;;
63653;SDS011;49809;47.418;19.080;2023-04-25T15:27:02;2.78;;;0.88;;
63653;SDS011;49809;47.418;19.080;2023-04-25T15:30:14;1.73;;;0.82;;
63653;SDS011;49809;47.418;19.080;2023-04-25T15:33:38;0.90;;;0.82;;
63653;SDS011;49809;47.418;19.080;2023-04-25T15:37:02;1.67;;;0.90;;
63653;SDS011;49809;47.418;19.080;2023-04-25T15:40:25;2.20;;;1.02;;
63653;SDS011;49809;47.418;19.080;2023-04-25T15:44:08;0.70;;;0.70;;
63653;SDS011;49809;47.418;19.080;2023-04-25T15:47:39;1.80;;;1.00;;
63653;SDS011;49809;47.418;19.080;2023-04-25T15:50:45;1.65;;;1.20;;
63653;SDS011;49809;47.418;19.080;2023-04-25T15:53:57;1.75;;;1.00;;
63653;SDS011;49809;47.418;19.080;2023-04-25T15:57:03;1.50;;;1.10;;
63653;SDS011;49809;47.418;19.080;2023-04-25T16:00:28;1.42;;;1.00;;
63653;SDS011;49809;47.418;19.080;2023-04-25T16:03:32;2.00;;;1.33;;
63653;SDS011;49809;47.418;19.080;2023-04-25T16:06:58;1.65;;;1.30;;
63653;SDS011;49809;47.418;19.080;2023-04-25T16:10:23;7.57;;;1.40;;
63653;SDS011;49809;47.418;19.080;2023-04-25T16:13:29;1.48;;;1.30;;
63653;SDS011;49809;47.418;19.080;2023-04-25T16:16:36;2.53;;;1.40;;
63653;SDS011;49809;47.418;19.080;2023-04-25T16:20:25;2.00;;;1.20;;
63653;SDS011;49809;47.418;19.080;2023-04-25T16:23:43;1.75;;;1.30;;
63653;SDS011;49809;47.418;19.080;2023-04-25T16:27:47;1.23;;;1.10;;
63653;SDS011;49809;47.418;19.080;2023-04-25T16:30:50;1.40;;;1.20;;
63653;SDS011;49809;47.418;19.080;2023-04-25T16:33:54;2.08;;;1.35;;
63653;SDS011;49809;47.418;19.080;2023-04-25T16:36:58;1.77;;;1.17;;
63653;SDS011;49809;47.418;19.080;2023-04-25T16:40:21;1.30;;;1.00;;
63653;SDS011;49809;47.418;19.080;2023-04-25T16:43:25;4.35;;;1.62;;
63653;SDS011;49809;47.418;19.080;2023-04-25T16:46:33;1.95;;;1.30;;
63653;SDS011;49809;47.418;19.080;2023-04-25T16:49:58;2.28;;;1.60;;
63653;SDS011;49809;47.418;19.080;2023-04-25T16:53:22;3.10;;;1.42;;
63653;SDS011;49809;47.418;19.080;2023-04-25T16:56:43;2.10;;;1.50;;
63653;SDS011;49809;47.418;19.080;2023-04-25T16:59:51;1.98;;;1.40;;
63653;SDS011;49809;47.418;19.080;2023-04-25T17:06:31;4.43;;;1.37;;
63653;SDS011;49809;47.418;19.080;2023-04-25T17:09:42;1.40;;;0.82;;
63653;SDS011;49809;47.418;19.080;2023-04-25T17:12:49;2.55;;;1.45;;
63653;SDS011;49809;47.418;19.080;2023-04-25T17:16:36;2.15;;;1.50;;
63653;SDS011;49809;47.418;19.080;2023-04-25T17:20:16;1.80;;;1.60;;
63653;SDS011;49809;47.418;19.080;2023-04-25T17:23:54;2.25;;;1.30;;
63653;SDS011;49809;47.418;19.080;2023-04-25T17:27:41;3.17;;;1.40;;
63653;SDS011;49809;47.418;19.080;2023-04-25T17:31:06;3.40;;;1.20;;
63653;SDS011;49809;47.418;19.080;2023-04-25T17:46:07;2.90;;;1.20;;
63653;SDS011;49809;47.418;19.080;2023-04-25T17:49:43;3.37;;;1.30;;
63653;SDS011;49809;47.418;19.080;2023-04-25T17:53:02;2.50;;;1.40;;
63653;SDS011;49809;47.418;19.080;2023-04-25T17:56:48;1.85;;;1.27;;
63653;SDS011;49809;47.418;19.080;2023-04-25T18:00:13;1.45;;;1.23;;
63653;SDS011;49809;47.418;19.080;2023-04-25T18:03:38;1.42;;;1.33;;
63653;SDS011;49809;47.418;19.080;2023-04-25T18:06:48;5.10;;;1.50;;
63653;SDS011;49809;47.418;19.080;2023-04-25T18:10:16;3.15;;;1.87;;
63653;SDS011;49809;47.418;19.080;2023-04-25T18:13:46;3.95;;;2.20;;
63653;SDS011;49809;47.418;19.080;2023-04-25T18:21:15;3.70;;;2.03;;
63653;SDS011;49809;47.418;19.080;2023-04-25T18:24:40;2.87;;;1.83;;
63653;SDS011;49809;47.418;19.080;2023-04-25T18:28:20;5.20;;;2.00;;
63653;SDS011;49809;47.418;19.080;2023-04-25T18:31:56;3.80;;;1.85;;
63653;SDS011;49809;47.418;19.080;2023-04-25T18:35:18;5.05;;;2.05;;
63653;SDS011;49809;47.418;19.080;2023-04-25T18:42:31;2.55;;;1.80;;
63653;SDS011;49809;47.418;19.080;2023-04-25T18:46:13;2.90;;;1.73;;
63653;SDS011;49809;47.418;19.080;2023-04-25T18:49:47;1.67;;;1.40;;
63653;SDS011;49809;47.418;19.080;2023-04-25T18:53:30;2.25;;;1.55;;
63653;SDS011;49809;47.418;19.080;2023-04-25T18:57:07;2.87;;;1.77;;
63653;SDS011;49809;47.418;19.080;2023-04-25T19:00:55;3.62;;;1.62;;
63653;SDS011;49809;47.418;19.080;2023-04-25T19:08:11;3.17;;;1.67;;
63653;SDS011;49809;47.418;19.080;2023-04-25T19:11:28;2.75;;;2.00;;
63653;SDS011;49809;47.418;19.080;2023-04-25T19:15:04;2.70;;;2.05;;
63653;SDS011;49809;47.418;19.080;2023-04-25T19:18:41;1.43;;;1.33;;
63653;SDS011;49809;47.418;19.080;2023-04-25T19:22:30;2.05;;;1.62;;
63653;SDS011;49809;47.418;19.080;2023-04-25T19:25:51;3.60;;;1.40;;
63653;SDS011;49809;47.418;19.080;2023-04-25T19:29:33;1.65;;;1.20;;
63653;SDS011;49809;47.418;19.080;2023-04-25T19:33:17;1.42;;;1.10;;
63653;SDS011;49809;47.418;19.080;2023-04-25T19:40:34;1.55;;;1.00;;
63653;SDS011;49809;47.418;19.080;2023-04-25T19:44:10;2.58;;;1.23;;
63653;SDS011;49809;47.418;19.080;2023-04-25T19:51:46;2.97;;;1.45;;
63653;SDS011;49809;47.418;19.080;2023-04-25T19:55:45;2.05;;;1.45;;
63653;SDS011;49809;47.418;19.080;2023-04-25T19:59:13;1.15;;;0.90;;
63653;SDS011;49809;47.418;19.080;2023-04-25T20:03:02;1.40;;;1.00;;
63653;SDS011;49809;47.418;19.080;2023-04-25T20:06:33;3.45;;;1.40;;
63653;SDS011;49809;47.418;19.080;2023-04-25T20:09:59;2.35;;;1.30;;
63653;SDS011;49809;47.418;19.080;2023-04-25T20:13:17;1.52;;;1.33;;
63653;SDS011;49809;47.418;19.080;2023-04-25T20:16:53;2.25;;;0.90;;
63653;SDS011;49809;47.418;19.080;2023-04-25T20:20:34;1.60;;;1.20;;
63653;SDS011;49809;47.418;19.080;2023-04-25T20:24:12;1.85;;;1.30;;
63653;SDS011;49809;47.418;19.080;2023-04-25T20:27:32;2.97;;;1.52;;
63653;SDS011;49809;47.418;19.080;2023-04-25T20:30:58;2.10;;;1.40;;
63653;SDS011;49809;47.418;19.080;2023-04-25T20:34:35;2.75;;;1.35;;
63653;SDS011;49809;47.418;19.080;2023-04-25T20:38:14;3.25;;;1.50;;
63653;SDS011;49809;47.418;19.080;2023-04-25T20:41:57;2.12;;;1.27;;
63653;SDS011;49809;47.418;19.080;2023-04-25T20:45:29;2.20;;;1.40;;
63653;SDS011;49809;47.418;19.080;2023-04-25T20:49:12;2.58;;;1.40;;
63653;SDS011;49809;47.418;19.080;2023-04-25T20:52:52;1.73;;;1.37;;
63653;SDS011;49809;47.418;19.080;2023-04-25T20:56:22;3.00;;;1.52;;
63653;SDS011;49809;47.418;19.080;2023-04-25T20:59:50;1.50;;;1.00;;
63653;SDS011;49809;47.418;19.080;2023-04-25T21:10:59;2.97;;;1.30;;
63653;SDS011;49809;47.418;19.080;2023-04-25T21:14:19;1.62;;;1.30;;
63653;SDS011;49809;47.418;19.080;2023-04-25T21:21:48;2.03;;;1.40;;
63653;SDS011;49809;47.418;19.080;2023-04-25T21:25:06;1.73;;;1.15;;
63653;SDS011;49809;47.418;19.080;2023-04-25T21:28:27;2.28;;;1.17;;
63653;SDS011;49809;47.418;19.080;2023-04-25T21:31:53;1.87;;;1.40;;
63653;SDS011;49809;47.418;19.080;2023-04-25T21:35:33;4.47;;;1.50;;
63653;SDS011;49809;47.418;19.080;2023-04-25T21:39:09;2.25;;;1.33;;
63653;SDS011;49809;47.418;19.080;2023-04-25T21:42:39;3.47;;;1.92;;
63653;SDS011;49809;47.418;19.080;2023-04-25T21:46:07;2.50;;;1.40;;
63653;SDS011;49809;47.418;19.080;2023-04-25T21:49:32;1.40;;;1.08;;
63653;SDS011;49809;47.418;19.080;2023-04-25T21:52:56;2.30;;;1.50;;
63653;SDS011;49809;47.418;19.080;2023-04-25T21:56:30;2.10;;;1.50;;
63653;SDS011;49809;47.418;19.080;2023-04-25T22:00:01;2.00;;;1.37;;
63653;SDS011;49809;47.418;19.080;2023-04-25T22:03:21;4.55;;;1.40;;
63653;SDS011;49809;47.418;19.080;2023-04-25T22:06:57;2.97;;;1.40;;
63653;SDS011;49809;47.418;19.080;2023-04-25T22:13:55;3.37;;;1.77;;
63653;SDS011;49809;47.418;19.080;2023-04-25T22:24:49;8.93;;;1.65;;
63653;SDS011;49809;47.418;19.080;2023-04-25T22:28:12;1.77;;;1.10;;
63653;SDS011;49809;47.418;19.080;2023-04-25T22:31:53;2.65;;;1.60;;
63653;SDS011;49809;47.418;19.080;2023-04-25T22:35:21;3.90;;;1.33;;
63653;SDS011;49809;47.418;19.080;2023-04-25T22:38:56;1.15;;;0.98;;
63653;SDS011;49809;47.418;19.080;2023-04-25T22:46:18;4.68;;;1.85;;
63653;SDS011;49809;47.418;19.080;2023-04-25T22:49:42;2.92;;;1.58;;
63653;SDS011;49809;47.418;19.080;2023-04-25T22:53:19;1.83;;;1.40;;
63653;SDS011;49809;47.418;19.080;2023-04-25T22:56:51;2.45;;;1.40;;
63653;SDS011;49809;47.418;19.080;2023-04-25T23:00:28;2.10;;;1.55;;
63653;SDS011;49809;47.418;19.080;2023-04-25T23:04:11;2.00;;;1.30;;
63653;SDS011;49809;47.418;19.080;2023-04-25T23:07:30;1.90;;;1.45;;
63653;SDS011;49809;47.418;19.080;2023-04-25T23:10:59;2.63;;;2.07;;
63653;SDS011;49809;47.418;19.080;2023-04-25T23:21:59;3.40;;;2.05;;
63653;SDS011;49809;47.418;19.080;2023-04-25T23:40:31;3.05;;;1.92;;
63653;SDS011;49809;47.418;19.080;2023-04-25T23:47:46;2.53;;;1.75;;
63653;SDS011;49809;47.418;19.080;2023-04-25T23:51:19;2.83;;;2.08;;
63653;SDS011;49809;47.418;19.080;2023-04-25T23:54:45;3.30;;;2.12;;
63653;SDS011;49809;47.418;19.080;2023-04-25T23:58:21;3.08;;;2.33;;
